Terminal Aerodrome Forecast
Issued by NWS Northern Indiana

Home | Current Version | Previous Version | Graphics & Text | Print | Product List | Glossary On
Versions: 1 2 3 4 5 6 7 8 9 10 11 12 13 14
000
FTUS43 KIWX 261700
TAFFWA
TAF
KFWA 261728Z 2618/2718 30012G18KT P6SM OVC035
      TEMPO 2618/2620 OVC025
     FM270000 32008KT P6SM SCT030 BKN150=

USA.gov is the U.S. government's official web portal to all federal, state and local government web resources and services.